Ride Results

Currowan (22-07-2017)
Ride distance: 80.0 km

Outcomes - Currowan (22-07-2017)
Division No. of Entries Retired / DNE Completed Withdrawn Ineligible V/O Percentage Completed
HW 9 - 6 - - 3 66.67%
MW 16 - 13 2 - 1 81.25%
LW 12 - 10 1 1 - 83.33%
JN 1 - 1 - - - 100.00%
Totals 38 - 30 3 1 4 78.95%
Results - Currowan (22-07-2017)
No. Rider Horse Place Time Leg Speeds Total
Km/Hr
H/R bpm
Heavyweight
60 John Robertson Karabil Asis 1 (BC) 5:17:00 15.7, 14.5 15.14 30, 50, 49 (Avg:49)
53 Peter Norman Contessa 2 6:51:00 12.7, 10.7 11.68 32, 43, 49 (Avg:46)
30 Rhys Norman Renbury Brian 3 7:15:00 10.2, 11.9 11.03 30, 52, 43 (Avg:47)
36 Stephen Deering Caramea Razzle Dazzle 4 7:44:00 11.0, 9.7 10.34 40, 47, 56 (Avg:51)
41 Alan Lindsay Kintamani Silver Motif 5 7:51:00 9.7, 10.7 10.19 34, 48, 60 (Avg:54)
23 Ian Dreghorn Ausden Nile Prins 6 8:55:00 9.4, 8.5 8.97 31, 41, 45 (Avg:43)
57 Steve Finnane Snippets Heart Rate L2 0:00:00 11.1, 10.7 - 40, 54, 72 (Avg:63)
55 Marty Moran Ralph Lauren Lame L2 0:00:00 10.0, 10.2 - 45, 49, 55 (Avg:52)
44 April Robinson Moveitalong Lame L1 0:00:00 10.0 - 36, 44 (Avg:44)
Middleweight
63 Kerry Alderton Madrigal Park Larbonetta 1 (BC) 5:17:00 15.6, 14.6 15.14 32, 36, 42 (Avg:39)
39 John Symons Ruby Rose 2 5:37:00 14.9, 13.5 14.24 41, 52, 48 (Avg:50)
31 Daniel Noble Sbara Oscar 3 6:51:00 11.5, 11.8 11.68 36, 44, 50 (Avg:47)
34 Tracy John Berwick Royal Music 4 7:02:00 12.2, 10.6 11.37 37, 42, 52 (Avg:47)
48 Peter Bice Georgie Girl 5 7:09:00 12.3, 10.2 11.19 38, 40, 42 (Avg:41)
35 Brooke Warner Bradali Najmul Fi Samar 6 7:38:00 9.9, 11.1 10.48 34, 37, 43 (Avg:40)
42 Brett Willis Cedar Ridge Timewarp 7 7:43:00 10.6, 10.0 10.37 42, 42, 44 (Avg:43)
38 April Newman Valinor Park Vatel 8 7:49:00 12.7, 8.5 10.23 34, 40, 39 (Avg:39)
56 Stacey Hayter Aztec 9 7:52:00 9.8, 10.5 10.17 41, 42, 53 (Avg:47)
54 Bev Turner Coco Chanel 9 7:52:00 10.0, 10.2 10.17 36, 40, 42 (Avg:41)
66 Kayte Barnard FC Bejing 11 7:57:00 10.7, 9.4 10.06 34, 40, 41 (Avg:40)
45 Tom Bouzianis Phoenix CE 12 8:00:00 9.4, 10.6 10.00 36, 46, 48 (Avg:47)
51 Emma Miles-Howe Ralvon Eternity 13 9:20:00 7.9, 9.3 8.57 30, 44, 56 (Avg:50)
50 Fiona Meller Malu Vale Embers Lame L2 0:00:00 10.6, 9.0 - 26, 36, 42 (Avg:39)
46 Michelle George Yinbilliko Sameera Rukan Withdrawn L1 0:00:00 - - 32, 35 (Avg:35)
52 Rebecca Lees WindradyneSierra Withdrawn L1 0:00:00 - - 27, 58 (Avg:58)
Lightweight
47 Julie Hooper A'Landell Enigma 1 (BC) 5:37:00 14.9, 13.5 14.24 44, 42, 47 (Avg:44)
32 Fia Hasko-Stewart Blake's Heaven Venus 2 5:52:00 14.6, 12.7 13.64 32, 46, 47 (Avg:46)
58 Roz Edmunds Everon Park Apollo 3 6:45:00 15.8, 9.4 11.85 30, 44, 49 (Avg:46)
64 Chloe Hubczack Heste Arabique Bobby Dazzler 4 6:50:00 11.5, 11.8 11.71 32, 42, 48 (Avg:45)
49 Sue Todd Shakari Bear 5 7:09:00 12.3, 10.2 11.19 39, 43, 48 (Avg:45)
59 Shelly Ison Lulu 6 7:15:00 11.0, 11.0 11.03 32, 41, 42 (Avg:41)
33 Faith Robinson Arabesque Winning Streak 7 7:18:00 10.6, 11.3 10.96 39, 45, 60 (Avg:52)
43 Leanne Holz Carlwood Park Austen 8 7:43:00 10.7, 10.0 10.37 34, 38, 50 (Avg:44)
40 Courtney Chapman Kintamani Silver Marksman 9 7:49:00 10.2, 10.2 10.23 34, 46, 48 (Avg:47)
25 Mary Hollingsworth Sandine Bugatti 10 8:57:00 10.7, 7.6 8.94 32, 44, 52 (Avg:48)
24 Cheny Collins Sandine Legal Withdrawn L2 0:00:00 - - 30, 39, 42 (Avg:40)
65 Elaine Kirby Turingal Park Nicholas Under Novice Time L2 0:00:00 12.9, 14.1 - 36, 41, 47 (Avg:44)
Junior
37 Emma Cole Cedar Ridge Carbine 1 (BC) 7:38:00 9.9, 11.1 10.48 32, 36, 39 (Avg:37)